Time;durP1;ratioP1;P1;durP2;ratioP2;P2;SDS_P1;SDS_P2;PMS_P1;PMS_P2;Temp;Humidity;BMP_temperature;BMP_pressure;BME280_temperature;BME280_humidity;BME280_pressure;Samples;Min_cycle;Max_cycle;Signal;HPM_P1;HPM_P2
2022/04/27 00:02:40;;;;;;;36.27;23.53;;;;;;;7.17;69.41;99164.16;2247567;79;20951;-82
2022/04/27 00:05:41;;;;;;;34.87;22.77;;;;;;;6.73;70.42;99165.33;2248440;79;20900;-81
2022/04/27 00:08:41;;;;;;;100.63;26.63;;;;;;;6.37;71.22;99169.37;2248292;79;20911;-81
2022/04/27 00:11:41;;;;;;;41.07;22.87;;;;;;;6.05;72.12;99169.53;2248013;79;20872;-81
2022/04/27 00:14:42;;;;;;;162.30;26.77;;;;;;;5.81;72.64;99166.47;2247302;79;20992;-80
2022/04/27 00:17:42;;;;;;;133.07;27.53;;;;;;;5.63;72.89;99169.28;2248477;79;21282;-82
2022/04/27 00:20:43;;;;;;;38.27;22.67;;;;;;;5.48;73.71;99168.72;2248144;79;20967;-83
2022/04/27 00:23:43;;;;;;;67.63;26.83;;;;;;;5.26;73.89;99174.80;2248457;79;20892;-80
2022/04/27 00:26:44;;;;;;;28.97;19.83;;;;;;;5.08;75.81;99170.66;2248416;79;21286;-82
2022/04/27 00:29:44;;;;;;;32.07;20.77;;;;;;;5.09;74.55;99180.18;2248005;79;20978;-82
2022/04/27 00:32:44;;;;;;;28.70;19.53;;;;;;;4.92;74.49;99173.88;2248142;79;20939;-79
2022/04/27 00:35:45;;;;;;;44.73;21.43;;;;;;;4.74;74.83;99175.33;2254701;78;21282;-82
2022/04/27 00:38:45;;;;;;;36.67;21.83;;;;;;;4.61;75.25;99176.54;2261448;79;20946;-82
2022/04/27 00:42:01;;;;;;;30.13;19.73;;;;;;;4.49;75.55;99178.63;2262148;79;20923;-82
2022/04/27 00:45:03;;;;;;;34.53;19.87;;;;;;;4.38;75.86;99170.44;2261797;79;20970;-81
2022/04/27 00:48:01;;;;;;;29.87;19.33;;;;;;;4.32;76.12;99186.06;2260847;79;21420;-81
2022/04/27 00:51:02;;;;;;;35.90;20.20;;;;;;;4.23;76.22;99183.98;2260829;79;21015;-82
2022/04/27 00:54:02;;;;;;;36.33;20.40;;;;;;;4.13;76.45;99181.41;2261058;79;20986;-81
2022/04/27 00:57:03;;;;;;;36.70;21.13;;;;;;;4.05;76.67;99182.79;2261153;79;20919;-82
2022/04/27 01:00:03;;;;;;;36.93;21.43;;;;;;;3.95;76.44;99184.91;2261843;79;20946;-82
2022/04/27 01:03:05;;;;;;;30.70;20.23;;;;;;;3.84;76.60;99190.50;2262181;79;21287;-82
2022/04/27 01:06:05;;;;;;;35.17;20.83;;;;;;;3.76;76.71;99189.28;2262164;79;20934;-82
2022/04/27 01:09:05;;;;;;;35.70;23.27;;;;;;;3.67;76.71;99190.16;2261998;79;20965;-82
2022/04/27 01:12:06;;;;;;;36.03;22.87;;;;;;;3.61;77.17;99183.84;2261986;79;20986;-82
2022/04/27 01:15:06;;;;;;;37.00;22.20;;;;;;;3.60;77.27;99189.83;2262117;79;20959;-82
2022/04/27 01:18:09;;;;;;;41.73;23.37;;;;;;;3.56;76.95;99188.80;2262230;79;20978;-82
2022/04/27 01:21:07;;;;;;;42.70;25.83;;;;;;;3.45;76.89;99192.16;2261704;79;20950;-82
2022/04/27 01:24:07;;;;;;;45.83;25.93;;;;;;;3.38;77.07;99196.98;2262118;79;20927;-82
2022/04/27 01:27:08;;;;;;;50.93;27.07;;;;;;;3.30;77.13;99201.78;2262127;79;21274;-82
2022/04/27 01:30:09;;;;;;;49.27;27.60;;;;;;;3.26;77.54;99199.00;2262304;79;21357;-82
2022/04/27 01:33:09;;;;;;;42.63;25.20;;;;;;;3.25;77.77;99199.80;2262047;79;21553;-81
2022/04/27 01:36:09;;;;;;;44.53;26.17;;;;;;;3.18;77.37;99200.81;2261782;79;20982;-82
2022/04/27 01:39:10;;;;;;;43.57;24.73;;;;;;;3.08;77.50;99203.78;2262068;79;21364;-82
2022/04/27 01:42:10;;;;;;;41.27;24.43;;;;;;;3.07;77.40;99199.43;2262232;79;20953;-82
2022/04/27 01:45:10;;;;;;;41.43;22.87;;;;;;;3.01;77.58;99208.17;2262419;79;20923;-81
2022/04/27 01:48:11;;;;;;;42.90;24.03;;;;;;;2.97;77.79;99215.28;2262269;79;21278;-82
2022/04/27 01:51:11;;;;;;;43.37;25.57;;;;;;;2.93;77.85;99215.95;2261811;79;20939;-82
2022/04/27 01:54:15;;;;;;;41.83;25.30;;;;;;;2.90;77.76;99209.77;2262352;79;20868;-82
2022/04/27 01:57:15;;;;;;;43.83;24.73;;;;;;;2.84;77.79;99215.52;2262397;79;20900;-82
2022/04/27 02:00:15;;;;;;;364.50;250.90;;;;;;;2.80;77.95;99214.89;2261971;79;21330;-82
2022/04/27 02:03:17;;;;;;;135.23;70.73;;;;;;;5.40;90.64;99203.38;2262289;79;20902;-79
2022/04/27 02:06:17;;;;;;;110.47;31.83;;;;;;;7.05;75.65;99198.82;2262372;79;20970;-82
2022/04/27 02:09:16;;;;;;;38.17;24.20;;;;;;;6.17;71.59;99193.73;2262665;79;20899;-82
2022/04/27 02:12:17;;;;;;;35.57;22.93;;;;;;;5.31;70.68;99201.33;2262318;79;20956;-82
2022/04/27 02:15:17;;;;;;;214.07;41.40;;;;;;;4.61;70.90;99202.80;2262294;79;21357;-79
2022/04/27 02:18:19;;;;;;;43.57;24.03;;;;;;;4.25;72.53;99210.77;2262454;79;20875;-80
2022/04/27 02:21:18;;;;;;;137.70;66.90;;;;;;;3.94;72.73;99208.97;2261958;79;20974;-81
2022/04/27 02:24:18;;;;;;;47.03;29.13;;;;;;;4.03;80.04;99203.80;2261704;79;20923;-82
2022/04/27 02:27:20;;;;;;;41.57;24.90;;;;;;;6.10;75.27;99195.64;2263186;79;20979;-82
2022/04/27 02:30:19;;;;;;;35.43;22.40;;;;;;;9.22;76.08;99185.72;2262521;79;20933;-82
2022/04/27 02:33:20;;;;;;;30.40;20.47;;;;;;;11.43;67.21;99189.89;2261234;79;20951;-82
2022/04/27 02:36:21;;;;;;;31.30;20.70;;;;;;;9.69;61.52;99193.72;2261702;78;20978;-82
2022/04/27 02:39:21;;;;;;;35.77;20.60;;;;;;;7.88;61.12;99197.88;2261651;79;21329;-82
2022/04/27 02:42:22;;;;;;;31.07;20.33;;;;;;;6.52;62.44;99201.83;2262232;79;20912;-81
2022/04/27 02:45:21;;;;;;;47.93;23.00;;;;;;;5.61;63.76;99205.48;2261687;79;20957;-81
2022/04/27 02:48:22;;;;;;;62.00;22.10;;;;;;;4.89;65.27;99209.56;2261500;79;20930;-82
2022/04/27 02:54:41;;;;;;;33.90;21.97;;;;;;;3.95;67.46;99218.48;2259218;78;20976;-82
2022/04/27 02:57:42;;;;;;;34.17;21.87;;;;;;;3.57;68.15;99215.09;2259363;79;21336;-82
2022/04/27 03:00:44;;;;;;;33.33;21.20;;;;;;;3.27;68.80;99217.13;2259742;79;21042;-82
2022/04/27 03:03:43;;;;;;;37.57;22.87;;;;;;;3.11;69.30;99212.06;2260155;79;20931;-82
2022/04/27 03:06:44;;;;;;;63.23;31.03;;;;;;;2.81;69.83;99215.37;2260197;79;21353;-80
2022/04/27 03:09:44;;;;;;;44.93;24.57;;;;;;;2.59;70.58;99215.10;2260687;79;20934;-82
2022/04/27 03:12:45;;;;;;;36.43;22.93;;;;;;;2.46;71.35;99220.06;2260833;79;20946;-81
2022/04/27 03:15:45;;;;;;;48.47;23.17;;;;;;;2.37;71.92;99220.89;2260961;79;20923;-82
2022/04/27 03:18:46;;;;;;;41.77;23.73;;;;;;;2.26;72.51;99219.07;2260738;79;21389;-82
2022/04/27 03:21:46;;;;;;;96.87;28.03;;;;;;;2.20;72.91;99222.22;2261365;79;20962;-82
2022/04/27 03:24:46;;;;;;;51.20;28.50;;;;;;;2.17;73.46;99231.48;2261704;79;21337;-81
2022/04/27 03:27:50;;;;;;;48.57;28.87;;;;;;;2.09;73.22;99231.50;2261391;79;21524;-83
2022/04/27 03:30:50;;;;;;;74.10;29.40;;;;;;;2.01;73.38;99227.64;2230211;79;21019;-82
2022/04/27 03:33:50;;;;;;;45.20;27.00;;;;;;;1.96;73.74;99230.39;2261906;79;21314;-81
2022/04/27 03:36:50;;;;;;;50.77;26.37;;;;;;;1.95;73.87;99235.94;2261177;77;20963;-80
2022/04/27 03:39:52;;;;;;;52.73;26.20;;;;;;;1.95;73.85;99238.52;2259928;79;20911;-80
2022/04/27 03:42:51;;;;;;;51.43;25.67;;;;;;;1.93;74.41;99243.10;2259505;79;21415;-81
2022/04/27 03:45:52;;;;;;;46.87;25.60;;;;;;;1.88;74.19;99243.75;2260797;79;20935;-81
2022/04/27 03:48:52;;;;;;;42.50;24.47;;;;;;;1.83;74.42;99240.05;2261400;79;20931;-81
2022/04/27 03:51:52;;;;;;;38.37;23.70;;;;;;;1.81;74.52;99248.50;2260412;79;21330;-81
2022/04/27 03:54:53;;;;;;;42.37;24.70;;;;;;;1.79;74.78;99251.39;2259517;79;21050;-81
2022/04/27 03:57:53;;;;;;;55.07;25.70;;;;;;;1.80;74.83;99248.02;2258500;79;20895;-81
2022/04/27 04:00:54;;;;;;;42.07;25.97;;;;;;;1.79;74.88;99253.97;2259714;79;21688;-82
2022/04/27 04:03:56;;;;;;;43.10;23.80;;;;;;;1.80;75.29;99248.02;2258945;79;20966;-81
2022/04/27 04:06:56;;;;;;;35.77;21.73;;;;;;;1.86;75.51;99247.93;2258736;79;20994;-81
2022/04/27 04:09:59;;;;;;;40.73;23.73;;;;;;;1.91;75.15;99250.34;2186014;80;21413;-80
2022/04/27 04:12:59;;;;;;;43.67;23.07;;;;;;;1.98;75.52;99255.41;2249885;79;20955;-82
2022/04/27 04:15:59;;;;;;;47.47;23.93;;;;;;;2.08;75.57;99260.23;2258483;79;20938;-81
2022/04/27 04:19:00;;;;;;;37.03;23.23;;;;;;;2.21;75.68;99265.20;2256614;79;20997;-81
2022/04/27 04:22:00;;;;;;;36.63;23.00;;;;;;;2.30;75.37;99271.63;2257504;79;20978;-82
2022/04/27 04:28:32;;;;;;;41.37;24.80;;;;;;;2.48;76.20;99270.86;2257502;78;21016;-81
2022/04/27 04:31:32;;;;;;;36.47;23.23;;;;;;;2.70;76.43;99274.54;2257521;79;20982;-81
2022/04/27 04:34:32;;;;;;;47.13;23.60;;;;;;;2.93;76.60;99276.55;2258929;79;20962;-80
2022/04/27 04:37:33;;;;;;;62.80;25.70;;;;;;;3.12;76.36;99277.03;2255980;79;20966;-82
2022/04/27 04:40:33;;;;;;;51.70;27.70;;;;;;;3.28;75.88;99277.34;2256071;79;20966;-82
2022/04/27 04:43:34;;;;;;;49.43;28.23;;;;;;;3.44;75.69;99281.12;2254845;79;21591;-81
2022/04/27 04:46:34;;;;;;;81.80;31.00;;;;;;;3.65;76.14;99286.02;2255258;79;21077;-82
2022/04/27 04:49:34;;;;;;;60.20;31.23;;;;;;;3.89;76.16;99293.12;2255124;79;20946;-82
2022/04/27 04:52:35;;;;;;;69.07;35.00;;;;;;;4.14;75.92;99288.23;2255286;79;21390;-81
2022/04/27 04:55:35;;;;;;;69.30;40.00;;;;;;;4.32;75.48;99292.02;2255225;79;20958;-80
2022/04/27 04:58:36;;;;;;;96.43;41.37;;;;;;;4.46;75.37;99286.66;2255965;79;20983;-79
2022/04/27 05:01:36;;;;;;;70.30;38.93;;;;;;;4.65;75.23;99291.32;2255375;79;21480;-78
2022/04/27 05:04:37;;;;;;;248.83;49.80;;;;;;;4.82;75.14;99290.32;2255499;79;20986;-82
2022/04/27 05:07:37;;;;;;;83.53;41.20;;;;;;;4.99;74.94;99298.36;2255486;79;20994;-82
2022/04/27 05:10:37;;;;;;;78.73;39.20;;;;;;;5.23;74.70;99301.50;2255846;79;20961;-83
2022/04/27 05:13:39;;;;;;;73.77;36.47;;;;;;;5.43;74.66;99300.58;2255762;79;21238;-81
2022/04/27 05:16:38;;;;;;;69.90;35.53;;;;;;;5.66;74.83;99305.36;2256471;79;21705;-82
2022/04/27 05:19:39;;;;;;;64.03;34.57;;;;;;;5.88;74.61;99303.17;2256253;79;20963;-82
2022/04/27 05:22:39;;;;;;;54.53;32.80;;;;;;;6.09;74.55;99306.63;2255192;79;20958;-82
2022/04/27 05:25:40;;;;;;;56.53;33.30;;;;;;;6.31;74.79;99306.58;2255093;79;21469;-82
2022/04/27 05:31:55;;;;;;;50.70;32.60;;;;;;;6.85;74.48;99308.44;2255571;79;21074;-85
2022/04/27 05:34:56;;;;;;;49.13;31.60;;;;;;;7.09;74.22;99309.70;2256029;79;20974;-84
2022/04/27 05:37:56;;;;;;;46.80;30.50;;;;;;;7.30;74.04;99307.39;2243592;79;21015;-84
2022/04/27 05:40:57;;;;;;;45.90;30.33;;;;;;;7.57;73.94;99307.79;2239371;79;20943;-84
2022/04/27 05:43:57;;;;;;;47.93;30.90;;;;;;;7.84;73.59;99314.28;2238684;79;20993;-82
2022/04/27 05:46:57;;;;;;;46.07;31.17;;;;;;;8.04;73.50;99319.65;2238804;79;20990;-82
2022/04/27 05:49:58;;;;;;;47.07;30.37;;;;;;;8.29;73.44;99319.52;2238756;79;20974;-82
2022/04/27 05:52:59;;;;;;;45.67;30.20;;;;;;;8.58;73.23;99316.45;2239501;79;20947;-82
2022/04/27 05:55:58;;;;;;;43.67;29.87;;;;;;;8.81;72.92;99324.02;2239901;79;21290;-82
2022/04/27 05:58:59;;;;;;;43.97;30.30;;;;;;;9.09;72.45;99314.78;2239257;79;20951;-83
2022/04/27 06:01:59;;;;;;;37.83;28.13;;;;;;;9.35;72.21;99318.44;2239502;79;21078;-82
2022/04/27 06:05:00;;;;;;;41.77;27.60;;;;;;;9.67;72.05;99320.11;2238707;79;21016;-82
2022/04/27 06:08:00;;;;;;;39.03;27.27;;;;;;;9.94;71.42;99321.15;2238383;79;20935;-79
2022/04/27 06:11:01;;;;;;;43.20;28.40;;;;;;;10.16;71.19;99320.76;2238908;79;20991;-82
2022/04/27 06:14:01;;;;;;;38.03;28.10;;;;;;;10.34;70.89;99323.33;2239434;79;20963;-81
2022/04/27 06:17:04;;;;;;;32.80;27.07;;;;;;;10.47;70.37;99326.67;2239516;79;20920;-81
2022/04/27 06:20:04;;;;;;;38.38;25.20;;;;;;;10.54;70.37;99332.47;2216813;79;21262;-81
2022/04/27 06:23:04;;;;;;;32.43;24.70;;;;;;;10.65;70.50;99333.55;2238321;79;20990;-81
2022/04/27 06:26:06;;;;;;;31.37;22.57;;;;;;;10.84;70.33;99330.44;2238424;79;21387;-79
2022/04/27 06:29:05;;;;;;;28.67;21.57;;;;;;;11.07;69.68;99329.54;2238520;79;21015;-82
2022/04/27 06:32:05;;;;;;;35.85;22.13;;;;;;;11.20;69.33;99333.24;2238531;79;21289;-79
2022/04/27 06:35:06;;;;;;;29.32;21.35;;;;;;;11.51;68.83;99337.27;2238554;79;21416;-82
2022/04/27 06:38:07;;;;;;;27.95;21.50;;;;;;;11.73;68.49;99338.05;2249228;78;20986;-82
2022/04/27 06:41:07;;;;;;;26.42;19.35;;;;;;;11.90;66.74;99346.18;2253140;79;20954;-81
2022/04/27 06:44:07;;;;;;;27.90;19.35;;;;;;;12.05;66.01;99338.55;2252908;79;20951;-82
2022/04/27 06:47:07;;;;;;;26.62;20.75;;;;;;;12.24;65.58;99340.13;2253233;79;21370;-81
2022/04/27 06:50:08;;;;;;;22.22;19.45;;;;;;;12.46;64.51;99350.02;2253502;79;20939;-79
2022/04/27 06:53:09;;;;;;;21.17;17.50;;;;;;;12.57;64.32;99343.16;2252589;78;21048;-80
2022/04/27 06:56:08;;;;;;;28.02;17.65;;;;;;;12.59;62.72;99344.49;2253766;79;21017;-80
2022/04/27 06:59:09;;;;;;;19.62;16.60;;;;;;;12.59;62.29;99353.66;2253963;79;21015;-80
2022/04/27 07:02:09;;;;;;;17.30;15.40;;;;;;;12.78;62.36;99351.70;2253924;79;20994;-80
2022/04/27 07:05:16;;;;;;;18.02;14.93;;;;;;;12.94;61.64;99350.12;2253197;79;20990;-82
2022/04/27 07:08:10;;;;;;;18.00;14.68;;;;;;;12.98;58.52;99351.47;2253209;79;20915;-81
2022/04/27 07:11:10;;;;;;;19.05;14.68;;;;;;;12.99;59.26;99355.85;2253491;79;20966;-82
2022/04/27 07:14:16;;;;;;;16.57;14.90;;;;;;;13.11;58.86;99355.13;2220901;79;20923;-81
2022/04/27 07:17:13;;;;;;;18.12;15.38;;;;;;;13.06;58.45;99352.46;2253862;78;20943;-81
2022/04/27 07:20:14;;;;;;;29.57;15.63;;;;;;;13.22;58.57;99353.95;2252502;79;21489;-80
2022/04/27 07:23:14;;;;;;;25.92;14.23;;;;;;;13.24;58.10;99357.04;2251632;79;21259;-80
2022/04/27 07:26:14;;;;;;;21.33;13.88;;;;;;;13.42;58.40;99358.94;2251779;79;20975;-80
2022/04/27 07:29:15;;;;;;;22.93;17.23;;;;;;;13.70;57.91;99356.98;2251852;79;20939;-80
2022/04/27 07:32:15;;;;;;;19.82;16.85;;;;;;;13.92;57.48;99367.23;2252031;79;21025;-79
2022/04/27 07:35:18;;;;;;;31.37;16.15;;;;;;;13.81;57.09;99364.93;2251440;79;20911;-81
2022/04/27 07:38:16;;;;;;;19.00;15.05;;;;;;;13.79;57.74;99363.16;2253065;78;21102;-81
2022/04/27 07:41:17;;;;;;;16.73;14.63;;;;;;;13.77;57.62;99365.78;2252965;79;20966;-80
2022/04/27 07:44:17;;;;;;;17.85;13.90;;;;;;;13.77;56.76;99369.71;2253459;79;21285;-82
2022/04/27 07:47:17;;;;;;;19.27;13.05;;;;;;;13.42;56.78;99368.55;2252474;79;20978;-81
2022/04/27 07:50:19;;;;;;;13.70;12.28;;;;;;;13.37;57.70;99371.14;2252109;79;20986;-81
2022/04/27 07:53:18;;;;;;;17.00;12.63;;;;;;;13.56;57.63;99373.48;2253504;79;20902;-80
2022/04/27 07:56:19;;;;;;;18.17;12.73;;;;;;;13.79;56.54;99371.91;2253559;78;20998;-78
2022/04/27 07:59:19;;;;;;;15.00;13.18;;;;;;;13.63;55.93;99376.59;2250859;79;20965;-80
2022/04/27 08:02:20;;;;;;;16.20;12.55;;;;;;;13.74;55.31;99374.06;2251900;79;21369;-81
2022/04/27 08:05:20;;;;;;;15.90;12.70;;;;;;;13.64;54.93;99382.30;2251776;79;21022;-80
2022/04/27 08:08:20;;;;;;;13.90;11.70;;;;;;;13.44;55.19;99388.68;2252474;79;20969;-81
2022/04/27 08:11:22;;;;;;;14.15;12.68;;;;;;;13.44;55.92;99391.30;2252250;79;21352;-80
2022/04/27 08:14:24;;;;;;;13.55;11.65;;;;;;;13.49;55.72;99383.48;2252379;79;21980;-80
2022/04/27 08:17:25;;;;;;;13.03;11.03;;;;;;;13.69;56.38;99384.09;2254450;79;20958;-81
2022/04/27 08:23:46;;;;;;;14.55;11.68;;;;;;;14.30;54.45;99387.15;2252522;79;20998;-80
2022/04/27 08:26:46;;;;;;;11.57;10.15;;;;;;;14.24;53.79;99393.68;2253396;79;20998;-81
2022/04/27 08:29:47;;;;;;;10.68;9.53;;;;;;;14.37;52.98;99392.00;2253555;79;20981;-80
2022/04/27 08:32:47;;;;;;;12.30;10.95;;;;;;;14.33;53.30;99394.16;2253081;79;20978;-81
2022/04/27 08:35:48;;;;;;;80.57;14.38;;;;;;;14.63;50.62;99398.29;2253690;79;21344;-81
2022/04/27 08:38:51;;;;;;;13.90;9.68;;;;;;;14.91;51.97;99397.11;2252847;77;21035;-80
2022/04/27 08:41:49;;;;;;;9.73;8.58;;;;;;;15.14;50.90;99392.79;2252499;79;21286;-82
2022/04/27 08:44:49;;;;;;;10.55;9.45;;;;;;;14.98;50.92;99394.50;2253049;79;20961;-81
2022/04/27 08:47:50;;;;;;;9.50;8.38;;;;;;;15.05;50.36;99396.71;2252673;79;20956;-80
2022/04/27 08:50:50;;;;;;;10.32;7.58;;;;;;;15.16;50.66;99394.11;2252013;79;21011;-80
2022/04/27 08:53:50;;;;;;;11.00;7.40;;;;;;;15.37;50.21;99393.27;2252425;79;20994;-80
2022/04/27 08:56:52;;;;;;;9.38;7.17;;;;;;;15.35;48.34;99397.21;2252965;79;21026;-81
2022/04/27 08:59:51;;;;;;;9.93;6.22;;;;;;;15.57;48.24;99400.73;2253853;79;20986;-80
2022/04/27 09:02:58;;;;;;;5.50;5.00;;;;;;;15.86;47.47;99392.47;2253581;79;21022;-80
2022/04/27 09:05:58;;;;;;;4.60;4.20;;;;;;;15.95;46.46;99389.39;2253471;79;20935;-81
2022/04/27 09:08:59;;;;;;;5.45;4.95;;;;;;;16.28;46.28;99398.98;2252719;79;20938;-80
2022/04/27 09:12:00;;;;;;;4.60;4.20;;;;;;;16.69;46.27;99392.33;2253973;79;20935;-81
2022/04/27 09:14:59;;;;;;;4.97;4.47;;;;;;;16.91;45.10;99393.99;2253072;79;20970;-81
2022/04/27 09:21:20;;;;;;;5.60;5.03;;;;;;;17.37;44.80;99391.98;2254477;79;21006;-80
2022/04/27 09:24:19;;;;;;;5.80;5.30;;;;;;;17.38;44.32;99388.91;2254246;79;21420;-81
2022/04/27 09:27:21;;;;;;;5.08;4.58;;;;;;;17.60;42.86;99389.18;2253699;79;20938;-82
2022/04/27 09:30:21;;;;;;;4.12;3.80;;;;;;;17.94;42.88;99394.20;2252696;79;21005;-80
2022/04/27 09:33:21;;;;;;;5.58;4.22;;;;;;;18.16;41.30;99393.11;2252310;79;20990;-82
2022/04/27 09:36:25;;;;;;;46.77;6.53;;;;;;;18.20;39.65;99392.19;2251713;79;21005;-80
2022/04/27 09:39:25;;;;;;;31.25;5.80;;;;;;;18.00;39.35;99396.80;2246520;79;20967;-81
2022/04/27 09:42:25;;;;;;;4.87;3.95;;;;;;;17.87;41.51;99394.70;2245557;79;20943;-82
2022/04/27 09:45:26;;;;;;;8.25;4.00;;;;;;;18.07;40.02;99394.52;2245373;79;21397;-81
2022/04/27 09:48:26;;;;;;;22.02;4.65;;;;;;;17.97;39.69;99391.54;2246021;79;20998;-83
2022/04/27 09:51:28;;;;;;;4.92;4.08;;;;;;;17.97;40.15;99388.90;2211351;80;21054;-83
2022/04/27 09:54:29;;;;;;;4.50;3.50;;;;;;;17.94;40.28;99398.17;2238801;79;20942;-83
2022/04/27 09:57:31;;;;;;;3.75;3.45;;;;;;;17.94;40.30;99389.80;2222360;79;20992;-79
2022/04/27 10:00:35;;;;;;;8.85;3.72;;;;;;;18.09;40.92;99384.81;2244847;79;20979;-82
2022/04/27 10:03:34;;;;;;;16.55;4.28;;;;;;;18.19;39.30;99384.28;2223136;79;20983;-82
2022/04/27 10:06:34;;;;;;;25.62;3.83;;;;;;;18.30;39.86;99386.39;2246597;79;21066;-82
2022/04/27 10:09:35;;;;;;;3.47;3.17;;;;;;;18.38;37.73;99378.81;2246523;79;20987;-83
2022/04/27 10:12:38;;;;;;;3.40;3.10;;;;;;;18.34;36.04;99384.15;2212347;80;20983;-83
2022/04/27 10:15:41;;;;;;;6.72;3.40;;;;;;;18.43;38.24;99378.31;2269539;78;20963;-83
2022/04/27 10:18:39;;;;;;;11.45;3.75;;;;;;;18.67;36.70;99380.27;2246650;79;21027;-82
2022/04/27 10:22:01;;;;;;;5.13;3.70;;;;;;;18.77;37.88;99375.30;2246044;78;20982;-82
2022/04/27 10:25:01;;;;;;;47.10;7.05;;;;;;;18.87;37.97;99369.44;2222788;79;20958;-83
2022/04/27 10:28:00;;;;;;;28.25;5.83;;;;;;;18.92;37.51;99370.25;2244943;79;21677;-82
2022/04/27 10:31:03;;;;;;;4.42;3.83;;;;;;;19.20;38.08;99378.71;2245642;79;21018;-82
2022/04/27 10:34:01;;;;;;;7.85;3.72;;;;;;;19.54;36.26;99372.04;2245931;79;20994;-82
2022/04/27 10:37:03;;;;;;;10.63;4.22;;;;;;;19.80;36.65;99370.28;2246924;79;20934;-80
2022/04/27 10:40:02;;;;;;;14.73;4.80;;;;;;;19.76;36.40;99376.98;2247010;78;21043;-82
2022/04/27 10:43:05;;;;;;;5.08;4.30;;;;;;;19.31;34.17;99379.43;2247315;79;20891;-83
2022/04/27 10:46:04;;;;;;;8.60;4.20;;;;;;;18.76;36.49;99373.09;2224538;79;20962;-79
2022/04/27 10:49:08;;;;;;;7.87;3.98;;;;;;;18.54;36.42;99377.31;2247426;79;21339;-82
2022/04/27 10:52:11;;;;;;;313.65;27.22;;;;;;;18.37;36.15;99377.51;2224605;79;21021;-79
2022/04/27 10:55:12;;;;;;;7.22;4.65;;;;;;;18.36;36.97;99380.59;2246784;79;21000;-81
2022/04/27 10:58:18;;;;;;;6.97;5.05;;;;;;;18.93;36.76;99378.17;2224347;79;21436;-81
2022/04/27 11:01:20;;;;;;;4.17;3.77;;;;;;;19.45;35.49;99377.45;2199795;79;21049;-81
2022/04/27 11:04:26;;;;;;;5.42;4.87;;;;;;;19.44;36.16;99382.31;2223473;79;21054;-82
2022/04/27 11:07:25;;;;;;;6.62;4.35;;;;;;;19.14;34.95;99387.61;2224384;79;20962;-81
2022/04/27 11:10:27;;;;;;;12.85;6.22;;;;;;;18.63;35.38;99381.20;2223365;79;21026;-78
2022/04/27 11:13:28;;;;;;;4.72;4.25;;;;;;;18.18;37.38;99393.09;2244955;79;21434;-83
2022/04/27 11:16:32;;;;;;;6.58;4.85;;;;;;;17.67;37.13;99386.08;2223392;79;20995;-82
2022/04/27 11:19:30;;;;;;;5.75;4.55;;;;;;;17.40;37.29;99382.73;2246753;79;20951;-80
2022/04/27 11:22:31;;;;;;;5.30;4.75;;;;;;;17.20;39.07;99385.47;2246202;79;21409;-83
2022/04/27 11:25:33;;;;;;;4.00;3.70;;;;;;;17.23;38.61;99381.94;2222962;79;21057;-82
2022/04/27 11:28:34;;;;;;;546.08;48.75;;;;;;;17.36;38.68;99385.41;2246751;79;20999;-81
2022/04/27 11:31:34;;;;;;;22.30;5.55;;;;;;;17.34;38.65;99381.86;2246878;79;21013;-82
2022/04/27 11:34:34;;;;;;;5.30;4.37;;;;;;;17.44;39.08;99387.10;2245447;79;21424;-83
2022/04/27 11:37:37;;;;;;;4.55;3.80;;;;;;;17.36;38.33;99390.23;2222505;77;21008;-82
2022/04/27 11:40:38;;;;;;;3.75;3.27;;;;;;;17.44;39.54;99383.59;2245808;79;21374;-82
2022/04/27 11:43:40;;;;;;;5.03;3.62;;;;;;;17.56;38.86;99378.22;2224103;79;20991;-83
2022/04/27 11:46:40;;;;;;;53.38;6.78;;;;;;;17.56;37.00;99389.22;2246271;79;21421;-82
2022/04/27 11:49:40;;;;;;;4.20;3.80;;;;;;;17.60;37.60;99386.98;2246574;79;20990;-82
2022/04/27 11:52:41;;;;;;;20.62;4.92;;;;;;;17.71;38.61;99388.68;2245625;79;21070;-82
2022/04/27 11:55:43;;;;;;;22.25;4.72;;;;;;;17.75;38.27;99385.13;2222352;79;21297;-80
2022/04/27 11:58:52;;;;;;;14.30;4.17;;;;;;;17.78;38.80;99389.06;2245342;79;21707;-82
2022/04/27 12:01:51;;;;;;;7.83;4.17;;;;;;;17.70;37.81;99386.05;2222548;79;21014;-82
2022/04/27 12:04:53;;;;;;;6.58;3.95;;;;;;;17.64;38.17;99383.44;2222933;79;21094;-83
2022/04/27 12:07:57;;;;;;;6.50;4.15;;;;;;;17.58;37.54;99384.36;2222824;79;20982;-83
2022/04/27 12:10:58;;;;;;;36.90;7.08;;;;;;;17.37;38.22;99376.59;2223765;79;21378;-78
2022/04/27 12:13:58;;;;;;;11.43;4.83;;;;;;;17.12;39.08;99383.33;2245279;79;21026;-81
2022/04/27 12:17:03;;;;;;;21.87;5.37;;;;;;;16.99;39.56;99383.40;2222863;79;20986;-80
2022/04/27 12:20:03;;;;;;;10.05;5.28;;;;;;;16.83;40.03;99376.02;2222849;79;21350;-83
2022/04/27 12:23:05;;;;;;;4.40;3.52;;;;;;;16.75;40.77;99383.95;2245440;79;20947;-84
2022/04/27 12:26:04;;;;;;;7.10;4.05;;;;;;;16.66;40.90;99382.68;2245580;79;21013;-81
2022/04/27 12:29:04;;;;;;;5.58;4.10;;;;;;;16.71;41.07;99384.86;2244910;79;21002;-81
2022/04/27 12:32:04;;;;;;;5.67;4.17;;;;;;;16.73;41.33;99378.26;2245390;79;20978;-83
2022/04/27 12:38:32;;;;;;;4.08;3.67;;;;;;;16.98;40.85;99377.25;2218776;77;20990;-83
2022/04/27 12:41:37;;;;;;;4.15;3.85;;;;;;;17.19;40.67;99369.20;2245410;79;20951;-84
2022/04/27 12:44:35;;;;;;;13.00;3.60;;;;;;;17.30;41.08;99363.86;2221775;79;20959;-83
2022/04/27 12:47:40;;;;;;;3.52;3.25;;;;;;;17.43;40.42;99366.00;2220749;79;21014;-81
2022/04/27 12:50:45;;;;;;;4.37;3.52;;;;;;;17.56;39.88;99366.78;2221658;79;21427;-82
2022/04/27 12:53:46;;;;;;;4.53;3.42;;;;;;;17.66;39.67;99364.09;2245305;79;20954;-81
2022/04/27 12:56:54;;;;;;;5.37;3.20;;;;;;;17.72;39.45;99367.12;2245397;79;21005;-82
2022/04/27 12:59:54;;;;;;;3.55;3.25;;;;;;;17.96;39.00;99360.73;2245537;79;20939;-79
2022/04/27 13:02:55;;;;;;;3.72;3.42;;;;;;;18.06;37.98;99361.08;2246334;79;20915;-83
2022/04/27 13:05:57;;;;;;;8.98;3.65;;;;;;;17.89;38.25;99365.20;2212631;80;21058;-83
2022/04/27 13:12:20;;;;;;;164.47;15.05;;;;;;;17.38;38.62;99366.48;2245960;78;20986;-82
2022/04/27 13:15:23;;;;;;;4.37;3.25;;;;;;;17.05;39.32;99371.50;2246100;79;20970;-82
2022/04/27 13:18:24;;;;;;;4.08;3.67;;;;;;;16.79;39.90;99372.52;2246432;79;20966;-82
2022/04/27 13:21:24;;;;;;;34.80;5.08;;;;;;;16.61;39.87;99369.92;2246545;79;20923;-83
2022/04/27 13:24:27;;;;;;;20.60;4.87;;;;;;;16.46;39.95;99369.95;2246724;79;21014;-83
2022/04/27 13:27:27;;;;;;;3.90;3.60;;;;;;;16.36;40.65;99369.55;2223393;79;20946;-83
2022/04/27 13:30:28;;;;;;;6.55;3.45;;;;;;;16.29;40.44;99373.95;2245868;79;21369;-82
2022/04/27 13:33:28;;;;;;;4.55;3.22;;;;;;;16.26;40.05;99371.33;2245655;79;21001;-82
2022/04/27 13:36:28;;;;;;;5.40;3.80;;;;;;;16.16;40.77;99375.75;2246267;79;20969;-83
2022/04/27 13:39:29;;;;;;;6.75;4.45;;;;;;;16.15;40.73;99371.36;2250145;78;20951;-82
2022/04/27 13:42:29;;;;;;;12.23;5.70;;;;;;;16.12;40.90;99375.76;2254601;79;20978;-80
2022/04/27 13:45:33;;;;;;;5.80;4.65;;;;;;;16.09;40.56;99375.77;2253108;79;21014;-83
2022/04/27 13:48:33;;;;;;;4.72;4.00;;;;;;;16.13;40.48;99378.83;2221430;79;20966;-82
2022/04/27 13:51:34;;;;;;;19.95;4.78;;;;;;;16.21;40.11;99368.70;2252587;79;20978;-82
2022/04/27 13:54:34;;;;;;;5.42;4.30;;;;;;;16.23;40.33;99376.61;2252782;79;21276;-81
2022/04/27 13:57:36;;;;;;;4.67;3.70;;;;;;;16.33;40.21;99371.75;2248264;79;21025;-82
2022/04/27 14:00:37;;;;;;;8.43;3.12;;;;;;;16.45;39.75;99371.71;2253313;79;20994;-82
2022/04/27 14:03:37;;;;;;;5.83;3.77;;;;;;;16.65;39.86;99366.43;2253556;79;20966;-82
2022/04/27 14:06:38;;;;;;;4.80;3.87;;;;;;;16.77;39.52;99366.81;2254651;79;20962;-82
2022/04/27 14:09:38;;;;;;;3.37;3.08;;;;;;;16.81;39.69;99368.55;2254063;79;21221;-82
2022/04/27 14:19:19;;;;;;;10.38;5.15;;;;;;;16.95;37.44;99368.48;2254202;79;21598;-82
2022/04/27 14:22:19;;;;;;;6.40;4.27;;;;;;;16.85;36.46;99372.48;2254231;79;21333;-82
2022/04/27 14:25:21;;;;;;;5.97;3.50;;;;;;;16.81;37.15;99367.23;2254320;79;21031;-82
2022/04/27 14:28:22;;;;;;;8.43;5.17;;;;;;;16.88;37.12;99365.00;2253995;79;20938;-82
2022/04/27 14:31:22;;;;;;;12.95;6.35;;;;;;;16.79;36.99;99366.37;2252851;79;20962;-80
2022/04/27 14:34:22;;;;;;;12.58;7.42;;;;;;;16.75;37.50;99364.19;2253105;79;21358;-81